LSMA

Details ICAO LSMA
Name Alpnach
Region Switzerland
Timezone Europe/Zurich (UTC+2.0)
Plans Departing 30
Arriving 25
Stats Elevation 1,460 ft / 445 m (AMSL)
Location 46.943300° 8.285000°
Runways 1
Magnetic Variation 2.742° E
Sunrise 2021-10-17 05:48:40 UTC / 2021-10-17 07:48:40 Local
Sunset 2021-10-17 16:38:01 UTC / 2021-10-17 18:38:01 Local
Advertisement - Login to hide

Runways

ID Width Length Bearing (true/mag) Surface Threshold Overrun Markings Lighting
01 130 ft / 40 m 4,936 ft / 1,504 m 9.69° / 6.95° ASPHALT 0 ft / 0 m 328 ft / 100 m APP EDGE THRESHOLD SALS TDZ
19 130 ft / 40 m 4,936 ft / 1,504 m 189.69° / 186.95° ASPHALT 0 ft / 0 m 1,640 ft / 500 m APP EDGE THRESHOLD MALS

Map

Weather


0- 5 10 15 20 25 30 35+ Temperature / °C

Clouds and Precipitation
Forecast for 2021-10-17 00:00 UTC. Updated 2 hours ago

Ground ~20,000 ft ~40,000 ft Winds

METAR

LSMA 162320Z AUTO VRB02KT 6000NDV NCD 04/03 Q1021 RMK

TAF

TAF LSMA 161625Z 1617/1723 VRB02KT CAVOK BECMG 1623/1702 4000 BR NSC PROB30 TEMPO 1702/1708 0500 FG VV001 BECMG 1710/1713 CAVOK

Frequencies

Tower 119.62 MHz
Warning: Do not use this data for real-world aviation or navigation. No guarantee of current accuracy is given.